Time;durP1;ratioP1;P1;durP2;ratioP2;P2;SDS_P1;SDS_P2;PMS_P1;PMS_P2;Temp;Humidity;BMP_temperature;BMP_pressure;BME280_temperature;BME280_humidity;BME280_pressure;Samples;Min_cycle;Max_cycle;Signal;HPM_P1;HPM_P2
2022/12/26 00:00:58;;;;;;;187.38;27.80;;;7.80;99.90;;;;;;5047242;28;20147;-44
2022/12/26 00:03:23;;;;;;;;;;;8.10;99.90;;;;;;5047389;28;20442;-45
2022/12/26 00:05:49;;;;;;;155.95;25.73;;;8.30;99.90;;;;;;5047511;28;19934;-44
2022/12/26 00:08:15;;;;;;;149.82;25.58;;;7.80;99.90;;;;;;5047474;28;20123;-44
2022/12/26 00:10:40;;;;;;;164.63;29.15;;;7.80;99.90;;;;;;5046331;28;20059;-45
2022/12/26 00:13:06;;;;;;;161.00;28.13;;;7.90;99.90;;;;;;5047568;28;20112;-45
2022/12/26 00:15:32;;;;;;;199.52;31.20;;;7.90;99.90;;;;;;5047237;28;20470;-44
2022/12/26 00:17:57;;;;;;;257.40;32.88;;;7.80;99.90;;;;;;5047180;28;20499;-44
2022/12/26 00:20:23;;;;;;;211.05;31.42;;;8.00;99.90;;;;;;5046447;28;20099;-44
2022/12/26 00:22:48;;;;;;;223.70;33.17;;;7.90;99.90;;;;;;5046804;28;20044;-44
2022/12/26 00:25:14;;;;;;;197.57;31.48;;;8.20;99.90;;;;;;5047048;28;20163;-43
2022/12/26 00:27:40;;;;;;;201.57;31.23;;;7.90;99.90;;;;;;5046863;28;20041;-45
2022/12/26 00:30:06;;;;;;;190.85;29.77;;;8.30;99.90;;;;;;5047048;28;20043;-44
2022/12/26 00:32:32;;;;;;;224.00;34.10;;;7.80;99.90;;;;;;5046882;28;20485;-44
2022/12/26 00:34:58;;;;;;;198.38;31.73;;;9.40;99.90;;;;;;5046992;28;20041;-44
2022/12/26 00:37:23;;;;;;;199.65;31.27;;;7.80;99.90;;;;;;5047498;28;20036;-44
2022/12/26 00:39:49;;;;;;;182.27;29.58;;;7.80;99.90;;;;;;5046949;28;20040;-44
2022/12/26 00:42:15;;;;;;;180.50;31.35;;;7.80;99.90;;;;;;5047053;28;20119;-45
2022/12/26 00:44:40;;;;;;;169.27;29.50;;;8.30;99.90;;;;;;5046676;28;20128;-44
2022/12/26 00:47:06;;;;;;;185.05;29.80;;;7.80;99.90;;;;;;5046794;28;20041;-44
2022/12/26 00:49:32;;;;;;;174.25;28.88;;;8.30;99.90;;;;;;5045267;28;20044;-43
2022/12/26 00:51:57;;;;;;;201.52;30.65;;;8.10;99.90;;;;;;5046782;28;20040;-45
2022/12/26 00:54:23;;;;;;;194.25;31.63;;;7.80;99.90;;;;;;5046713;28;20075;-45
2022/12/26 00:56:48;;;;;;;190.27;30.67;;;7.80;99.90;;;;;;5046730;28;20045;-45
2022/12/26 00:59:14;;;;;;;210.05;32.97;;;7.80;99.90;;;;;;5046579;28;20063;-45
2022/12/26 01:01:40;;;;;;;168.15;29.60;;;7.80;99.90;;;;;;5045873;28;20041;-44
2022/12/26 01:04:06;;;;;;;181.25;31.48;;;8.50;99.90;;;;;;5046310;28;20181;-45
2022/12/26 01:06:31;;;;;;;157.60;28.33;;;8.60;99.90;;;;;;5049729;28;20045;-45
2022/12/26 01:08:58;;;;;;;152.70;27.50;;;7.80;99.90;;;;;;5053259;28;20061;-46
2022/12/26 01:11:39;;;;;;;141.07;29.50;;;7.80;99.90;;;;;;5052773;28;20049;-45
2022/12/26 01:14:08;;;;;;;115.75;26.65;;;8.80;99.90;;;;;;5053357;28;20041;-43
2022/12/26 01:16:34;;;;;;;137.40;28.63;;;7.80;99.90;;;;;;5052842;28;20053;-44
2022/12/26 01:19:00;;;;;;;138.52;29.60;;;7.80;99.90;;;;;;5053219;28;20071;-45
2022/12/26 01:21:25;;;;;;;157.25;29.70;;;8.50;99.90;;;;;;5052282;28;20449;-44
2022/12/26 01:23:51;;;;;;;174.48;30.77;;;7.80;99.90;;;;;;5052883;28;20102;-44
2022/12/26 01:26:16;;;;;;;121.20;27.05;;;7.60;99.90;;;;;;5052838;28;20041;-44
2022/12/26 01:28:42;;;;;;;99.57;24.00;;;8.10;99.90;;;;;;5052092;28;20613;-43
2022/12/26 01:31:08;;;;;;;123.25;27.35;;;7.80;99.90;;;;;;5052733;28;20497;-44
2022/12/26 01:33:33;;;;;;;115.90;26.67;;;7.80;99.90;;;;;;5053058;28;20049;-47
2022/12/26 01:35:59;;;;;;;105.95;24.73;;;7.70;99.90;;;;;;5053150;28;20037;-44
2022/12/26 01:38:25;;;;;;;102.72;23.45;;;7.80;99.90;;;;;;5053023;28;20041;-45
2022/12/26 01:43:50;;;;;;;116.72;26.10;;;7.80;99.90;;;;;;5052550;28;20444;-43
2022/12/26 01:46:18;;;;;;;111.32;24.73;;;8.40;99.90;;;;;;5052926;28;20063;-44
2022/12/26 01:48:44;;;;;;;102.15;26.90;;;8.20;99.90;;;;;;5052429;28;20455;-44
2022/12/26 01:51:12;;;;;;;124.65;28.38;;;8.10;99.90;;;;;;5052099;28;20083;-45
2022/12/26 01:53:51;;;;;;;130.15;28.27;;;8.60;99.90;;;;;;5052424;28;20052;-44
2022/12/26 01:56:27;;;;;;;100.88;25.38;;;7.80;99.90;;;;;;5052949;28;20045;-45
2022/12/26 01:58:59;;;;;;;114.15;25.35;;;7.80;99.90;;;;;;5052350;28;20049;-44
2022/12/26 02:01:29;;;;;;;90.82;24.30;;;7.90;99.90;;;;;;5051135;28;20106;-44
2022/12/26 02:06:48;;;;;;;;;;;8.10;99.90;;;;;;5043503;28;20147;-44
2022/12/26 02:09:15;;;;;;;73.95;20.33;;;8.10;99.90;;;;;;5052260;28;19959;-46
2022/12/26 02:11:46;;;;;;;85.95;21.75;;;7.80;99.90;;;;;;5051909;28;20682;-44
2022/12/26 02:14:12;;;;;;;73.65;20.83;;;8.20;99.90;;;;;;5052242;28;20041;-46
2022/12/26 02:16:38;;;;;;;66.05;19.77;;;7.80;99.90;;;;;;5051918;28;20055;-44
2022/12/26 02:19:14;;;;;;;84.57;20.60;;;8.70;99.90;;;;;;5048767;28;20045;-45
2022/12/26 02:22:00;;;;;;;72.68;18.67;;;7.80;99.90;;;;;;5048912;28;20056;-44
2022/12/26 02:24:46;;;;;;;65.22;18.40;;;7.90;99.90;;;;;;5049097;28;20049;-44
2022/12/26 02:27:47;;;;;;;76.82;19.15;;;7.90;99.90;;;;;;5041615;28;20084;-44
2022/12/26 02:30:43;;;;;;;72.50;20.67;;;7.90;99.90;;;;;;5047149;28;20059;-45
2022/12/26 02:33:14;;;;;;;63.55;19.08;;;7.90;99.90;;;;;;5027327;28;20060;-44
2022/12/26 02:35:56;;;;;;;70.43;18.63;;;7.90;99.90;;;;;;5048564;28;20052;-44
2022/12/26 02:38:25;;;;;;;67.65;17.05;;;7.90;99.90;;;;;;5048939;28;20049;-48
2022/12/26 02:41:23;;;;;;;65.38;18.27;;;8.40;99.90;;;;;;5048927;28;20053;-44
2022/12/26 02:47:46;;;;;;;50.47;16.23;;;7.90;99.90;;;;;;5048775;28;20131;-45
2022/12/26 03:14:37;;;;;;;67.00;22.33;;;7.90;99.90;;;;;;5049095;28;20092;-43
2022/12/26 03:17:19;;;;;;;64.50;21.85;;;8.20;99.90;;;;;;5048516;28;20082;-45
2022/12/26 03:20:00;;;;;;;72.97;22.95;;;8.60;99.90;;;;;;5048122;28;20123;-44
2022/12/26 03:23:06;;;;;;;68.75;22.25;;;8.00;99.90;;;;;;5048121;28;20402;-45
2022/12/26 03:28:24;;;;;;;70.78;23.52;;;8.10;99.90;;;;;;5047764;28;20055;-45
2022/12/26 03:30:50;;;;;;;63.10;23.85;;;8.10;99.90;;;;;;5047702;28;20064;-45
2022/12/26 03:36:01;;;;;;;75.50;26.10;;;8.10;99.90;;;;;;5047502;28;20052;-44
2022/12/26 03:39:06;;;;;;;73.70;26.48;;;8.10;99.90;;;;;;5048401;28;20056;-44
2022/12/26 04:19:57;;;;;;;110.95;34.22;;;8.10;99.90;;;;;;5046896;28;20361;-47
2022/12/26 04:45:21;;;;;;;107.75;34.70;;;8.10;99.90;;;;;;5046879;28;20047;-44
2022/12/26 04:50:33;;;;;;;125.65;37.35;;;8.10;99.90;;;;;;5046953;28;20055;-44
2022/12/26 04:52:59;;;;;;;105.68;36.78;;;8.20;99.90;;;;;;5046782;28;20041;-49
2022/12/26 04:55:27;;;;;;;119.15;36.97;;;8.20;99.90;;;;;;5046982;28;20039;-45
2022/12/26 04:57:53;;;;;;;99.70;34.08;;;8.20;99.90;;;;;;5046992;28;20041;-43
2022/12/26 05:00:19;;;;;;;100.63;35.20;;;8.20;99.90;;;;;;5046898;28;21035;-44
2022/12/26 05:11:09;;;;;;;116.45;36.10;;;7.90;99.90;;;;;;5046590;28;20045;-44
2022/12/26 05:13:35;;;;;;;100.05;32.58;;;8.70;99.90;;;;;;5046326;28;20383;-43
2022/12/26 05:29:42;;;;;;;76.90;28.13;;;7.70;99.90;;;;;;5046186;28;20076;-44
2022/12/26 05:32:08;;;;;;;78.40;29.10;;;8.70;99.90;;;;;;5046212;28;20482;-45
2022/12/26 05:34:34;;;;;;;80.90;28.30;;;7.90;99.90;;;;;;5045714;28;20041;-44
2022/12/26 05:36:59;;;;;;;76.00;28.00;;;8.60;99.90;;;;;;5046017;28;20053;-44
2022/12/26 05:39:25;;;;;;;76.03;27.95;;;8.70;99.90;;;;;;5045638;28;20041;-44
2022/12/26 05:41:51;;;;;;;76.60;28.33;;;7.90;99.90;;;;;;5045891;28;20597;-44
2022/12/26 05:44:16;;;;;;;67.28;24.85;;;8.20;99.90;;;;;;5045645;28;20049;-44
2022/12/26 05:46:42;;;;;;;74.15;27.00;;;8.80;99.90;;;;;;5046543;28;20721;-43
2022/12/26 05:49:08;;;;;;;74.32;28.45;;;7.80;99.90;;;;;;5045642;28;20041;-44
2022/12/26 05:51:35;;;;;;;76.35;29.23;;;7.80;99.90;;;;;;5044475;28;20552;-44
2022/12/26 05:54:01;;;;;;;71.82;26.90;;;7.70;99.90;;;;;;5048304;28;20049;-44
2022/12/26 05:56:27;;;;;;;67.03;27.23;;;8.60;99.90;;;;;;5049595;28;20123;-44
2022/12/26 05:58:55;;;;;;;77.47;27.70;;;8.30;99.90;;;;;;5049367;28;20625;-44
2022/12/26 06:01:21;;;;;;;73.13;26.67;;;7.80;99.90;;;;;;5050030;28;20122;-43
2022/12/26 06:03:48;;;;;;;64.22;25.55;;;8.50;99.90;;;;;;5049847;28;20124;-46
2022/12/26 06:06:15;;;;;;;72.03;25.80;;;7.80;99.90;;;;;;5048090;28;20179;-44
2022/12/26 06:08:41;;;;;;;69.07;27.00;;;8.50;99.90;;;;;;5049518;28;20061;-44
2022/12/26 06:11:10;;;;;;;62.30;25.88;;;7.70;99.90;;;;;;5050145;28;20056;-45
2022/12/26 06:13:36;;;;;;;74.28;28.95;;;7.90;99.90;;;;;;5049616;28;20506;-43
2022/12/26 06:16:06;;;;;;;75.30;26.88;;;8.50;99.90;;;;;;5049845;28;20037;-44
2022/12/26 06:18:32;;;;;;;74.88;28.30;;;7.80;99.90;;;;;;5048866;28;20509;-44
2022/12/26 06:20:58;;;;;;;70.90;28.30;;;7.70;99.90;;;;;;5049764;28;20041;-44
2022/12/26 06:23:24;;;;;;;85.32;29.45;;;8.30;99.90;;;;;;5049217;28;20056;-47
2022/12/26 06:25:54;;;;;;;67.57;26.13;;;7.80;99.90;;;;;;5049740;28;20045;-45
2022/12/26 06:28:21;;;;;;;68.93;26.13;;;8.30;99.90;;;;;;5049467;28;20113;-44
2022/12/26 06:30:47;;;;;;;69.43;27.45;;;8.10;99.90;;;;;;5049457;28;20045;-45
2022/12/26 06:33:12;;;;;;;67.32;25.58;;;7.80;99.90;;;;;;5049114;28;20156;-44
2022/12/26 06:35:38;;;;;;;67.15;26.00;;;7.80;99.90;;;;;;5048594;28;20044;-46
2022/12/26 06:38:04;;;;;;;68.72;26.90;;;8.40;99.90;;;;;;5048974;28;20044;-45
2022/12/26 06:40:29;;;;;;;69.07;25.85;;;7.80;99.90;;;;;;5048912;28;20418;-44
2022/12/26 06:42:55;;;;;;;60.78;25.30;;;7.90;99.90;;;;;;5048760;28;20072;-44
2022/12/26 06:45:20;;;;;;;62.10;26.33;;;7.90;99.90;;;;;;5048727;28;20083;-44
2022/12/26 06:47:46;;;;;;;67.38;27.02;;;7.90;99.90;;;;;;5048718;28;20044;-44
2022/12/26 06:50:12;;;;;;;75.47;28.45;;;7.90;99.90;;;;;;5047365;28;20552;-45
2022/12/26 06:52:37;;;;;;;74.90;27.00;;;7.90;99.90;;;;;;5048543;28;20568;-44
2022/12/26 06:55:04;;;;;;;68.05;25.85;;;8.30;99.90;;;;;;5048827;28;20044;-44
2022/12/26 06:57:30;;;;;;;65.53;25.85;;;7.90;99.90;;;;;;5048737;28;20045;-46
2022/12/26 06:59:55;;;;;;;60.95;26.00;;;7.90;99.90;;;;;;5048887;28;20102;-44
2022/12/26 07:02:21;;;;;;;63.53;26.15;;;7.80;99.90;;;;;;5048528;28;20045;-44
2022/12/26 07:04:47;;;;;;;58.67;25.70;;;7.90;99.90;;;;;;5048171;28;20044;-44
2022/12/26 07:07:12;;;;;;;60.53;23.83;;;7.90;99.90;;;;;;5049178;28;20037;-44
2022/12/26 07:09:39;;;;;;;67.13;25.33;;;7.90;99.90;;;;;;5049042;28;20524;-44
2022/12/26 07:12:05;;;;;;;66.22;26.48;;;7.80;99.90;;;;;;5049346;28;20073;-45
2022/12/26 07:14:31;;;;;;;58.85;24.75;;;7.80;99.90;;;;;;5048712;28;20057;-44
2022/12/26 07:16:56;;;;;;;61.13;24.67;;;7.80;99.90;;;;;;5048334;28;20179;-44
2022/12/26 07:19:22;;;;;;;59.63;24.08;;;7.80;99.90;;;;;;5048341;28;20040;-45
2022/12/26 07:21:47;;;;;;;47.45;22.27;;;7.80;99.90;;;;;;5048388;28;20040;-44
2022/12/26 07:24:20;;;;;;;52.70;23.02;;;7.80;99.90;;;;;;5047992;28;20130;-43
2022/12/26 07:26:46;;;;;;;48.97;21.88;;;7.80;99.90;;;;;;5048371;28;20120;-43
2022/12/26 07:29:13;;;;;;;49.20;21.95;;;8.60;99.90;;;;;;5048142;28;20076;-43
2022/12/26 07:31:39;;;;;;;45.65;21.13;;;7.80;99.90;;;;;;5047998;28;20036;-47
2022/12/26 07:34:04;;;;;;;44.92;20.98;;;7.80;99.90;;;;;;5047560;28;20391;-43
2022/12/26 07:36:30;;;;;;;45.20;20.15;;;7.80;99.90;;;;;;5047742;28;20048;-45
2022/12/26 07:38:56;;;;;;;42.63;21.50;;;9.00;99.90;;;;;;5047799;28;20774;-45
2022/12/26 07:44:07;;;;;;;47.45;20.92;;;8.20;99.90;;;;;;5047823;28;20051;-44
2022/12/26 07:46:33;;;;;;;47.65;21.17;;;7.70;99.90;;;;;;5047851;28;20047;-45
2022/12/26 07:48:58;;;;;;;43.50;20.10;;;8.20;99.90;;;;;;5048015;28;20408;-44
2022/12/26 07:51:24;;;;;;;41.30;19.20;;;8.50;99.90;;;;;;5047564;28;20044;-44
2022/12/26 07:53:50;;;;;;;44.75;20.00;;;7.90;99.90;;;;;;5047543;28;20037;-44
2022/12/26 07:56:15;;;;;;;41.50;20.00;;;7.90;99.90;;;;;;5047516;28;20047;-44
2022/12/26 07:58:41;;;;;;;37.97;19.77;;;7.90;99.90;;;;;;5047852;28;20120;-45
2022/12/26 08:01:07;;;;;;;42.10;20.02;;;7.90;99.90;;;;;;5047991;28;20044;-44
2022/12/26 08:03:33;;;;;;;39.55;19.25;;;8.70;99.90;;;;;;5047537;28;20088;-44
2022/12/26 08:05:59;;;;;;;42.95;20.55;;;7.90;99.90;;;;;;5047823;28;20670;-45
2022/12/26 08:08:25;;;;;;;42.00;20.33;;;8.20;99.90;;;;;;5047323;28;20047;-45
2022/12/26 08:11:01;;;;;;;41.08;21.17;;;7.90;99.90;;;;;;5046860;28;20407;-46
2022/12/26 08:13:28;;;;;;;45.28;21.40;;;7.90;99.90;;;;;;5047502;28;20087;-44
2022/12/26 08:15:55;;;;;;;45.55;21.60;;;7.70;99.90;;;;;;5046399;28;20047;-46
2022/12/26 08:18:20;;;;;;;45.63;21.13;;;7.80;99.90;;;;;;5046969;28;20041;-44
2022/12/26 08:20:46;;;;;;;50.83;22.35;;;7.70;99.90;;;;;;5046872;28;20067;-44
2022/12/26 08:23:12;;;;;;;43.38;20.70;;;7.70;99.90;;;;;;5047054;28;20157;-45
2022/12/26 08:25:37;;;;;;;41.75;20.38;;;8.70;99.90;;;;;;5046971;28;20063;-43
2022/12/26 08:28:03;;;;;;;45.83;21.70;;;7.80;99.90;;;;;;5047269;28;20059;-44
2022/12/26 08:30:29;;;;;;;37.72;18.75;;;7.70;99.90;;;;;;5047268;28;20037;-44
2022/12/26 08:32:55;;;;;;;36.30;19.70;;;7.70;99.90;;;;;;5046780;28;20124;-47
2022/12/26 08:35:20;;;;;;;38.25;19.42;;;8.50;99.90;;;;;;5047083;28;20116;-44
2022/12/26 08:37:46;;;;;;;44.58;20.35;;;7.60;99.90;;;;;;5046876;28;20036;-44
2022/12/26 08:40:12;;;;;;;40.00;19.20;;;7.70;99.90;;;;;;5046458;28;20044;-44
2022/12/26 08:42:38;;;;;;;31.58;18.38;;;7.70;99.90;;;;;;5046257;28;20668;-45
2022/12/26 08:45:04;;;;;;;33.95;19.30;;;7.80;99.90;;;;;;5046899;28;20125;-44
2022/12/26 08:47:30;;;;;;;34.72;17.98;;;8.00;99.90;;;;;;5046975;28;20074;-44
2022/12/26 08:49:55;;;;;;;35.67;17.60;;;8.10;99.90;;;;;;5046521;28;20044;-44
2022/12/26 08:52:21;;;;;;;38.83;17.67;;;8.20;99.90;;;;;;5046664;28;20511;-45
2022/12/26 08:54:47;;;;;;;28.63;16.40;;;8.10;99.90;;;;;;5046751;28;20049;-45
2022/12/26 08:57:12;;;;;;;37.20;16.70;;;8.20;99.90;;;;;;5046972;28;20045;-43
2022/12/26 08:59:38;;;;;;;32.70;17.98;;;8.20;99.90;;;;;;5046510;28;20081;-44
2022/12/26 09:02:04;;;;;;;29.00;16.75;;;8.20;99.90;;;;;;5047067;28;20052;-45
2022/12/26 09:04:29;;;;;;;31.45;16.48;;;8.20;99.90;;;;;;5046024;28;20049;-43
2022/12/26 09:06:55;;;;;;;31.23;17.27;;;8.50;99.90;;;;;;5046137;28;20048;-47
2022/12/26 09:09:21;;;;;;;28.63;15.73;;;8.20;99.90;;;;;;5045729;28;20056;-45
2022/12/26 09:11:46;;;;;;;33.90;16.52;;;8.40;99.90;;;;;;5046225;28;20073;-44
2022/12/26 09:14:12;;;;;;;32.15;15.35;;;8.20;99.90;;;;;;5046070;28;20071;-44
2022/12/26 09:16:41;;;;;;;32.92;16.02;;;8.20;99.90;;;;;;5046051;28;20099;-45
2022/12/26 09:19:10;;;;;;;30.23;17.67;;;8.50;99.90;;;;;;5045768;28;20076;-44
2022/12/26 09:21:36;;;;;;;26.08;16.05;;;8.20;99.90;;;;;;5045786;28;20151;-44
2022/12/26 09:24:04;;;;;;;25.85;15.10;;;8.60;99.90;;;;;;5044356;28;20138;-45
2022/12/26 09:26:30;;;;;;;26.48;14.40;;;8.20;99.90;;;;;;5046372;28;20049;-44
2022/12/26 09:28:56;;;;;;;28.00;12.52;;;8.20;99.90;;;;;;5050085;28;20679;-44
2022/12/26 09:31:25;;;;;;;19.50;12.13;;;8.10;99.90;;;;;;5050025;28;20045;-43
2022/12/26 09:33:52;;;;;;;25.88;13.60;;;8.20;99.90;;;;;;5049880;28;20090;-44
2022/12/26 09:36:27;;;;;;;26.38;12.02;;;8.50;99.90;;;;;;5049858;28;20049;-44
2022/12/26 09:38:54;;;;;;;24.10;12.13;;;9.10;99.90;;;;;;5049425;28;20051;-44
2022/12/26 09:41:32;;;;;;;20.40;11.00;;;8.60;99.90;;;;;;5050093;28;20041;-43
2022/12/26 09:44:12;;;;;;;20.13;10.48;;;8.20;99.90;;;;;;5049827;28;20048;-43
2022/12/26 09:47:06;;;;;;;17.13;9.07;;;8.20;99.90;;;;;;5050865;28;20041;-43
2022/12/26 09:49:50;;;;;;;20.67;8.95;;;8.20;99.90;;;;;;5050896;28;20098;-45
2022/12/26 09:52:23;;;;;;;17.67;8.63;;;8.30;99.90;;;;;;5050296;28;20044;-43
2022/12/26 09:54:55;;;;;;;15.23;8.65;;;8.20;99.90;;;;;;5050209;28;20112;-44
2022/12/26 09:57:38;;;;;;;13.25;5.72;;;8.30;99.90;;;;;;5050031;28;20083;-45
2022/12/26 10:00:05;;;;;;;16.27;7.80;;;8.30;99.90;;;;;;5049395;28;20116;-44
2022/12/26 10:02:33;;;;;;;14.55;8.27;;;8.30;99.90;;;;;;5049390;28;20479;-43
2022/12/26 10:04:59;;;;;;;16.63;7.05;;;8.30;99.90;;;;;;5048986;28;20041;-44
2022/12/26 10:07:43;;;;;;;10.68;5.57;;;8.80;99.90;;;;;;5048521;28;20074;-45
2022/12/26 10:10:41;;;;;;;15.85;6.35;;;8.20;99.90;;;;;;5048887;28;20597;-44
2022/12/26 10:13:28;;;;;;;11.68;4.75;;;8.30;99.90;;;;;;5026081;28;20584;-43
2022/12/26 10:16:12;;;;;;;15.10;4.72;;;8.20;99.90;;;;;;5049115;28;20124;-45
2022/12/26 10:19:09;;;;;;;8.75;3.75;;;8.00;99.90;;;;;;5048403;28;20049;-42
2022/12/26 10:22:06;;;;;;;8.38;2.55;;;8.20;99.90;;;;;;5049101;28;20051;-42
2022/12/26 10:24:36;;;;;;;17.38;2.40;;;8.10;99.90;;;;;;5048019;28;20151;-43
2022/12/26 10:27:09;;;;;;;20.05;0.95;;;7.90;99.90;;;;;;5048410;28;20072;-44
2022/12/26 10:29:40;;;;;;;8.25;0.60;;;7.60;99.90;;;;;;5048806;28;20080;-43
2022/12/26 10:32:47;;;;;;;8.75;1.73;;;7.30;99.90;;;;;;5048184;28;20041;-43
2022/12/26 10:35:18;;;;;;;8.52;2.25;;;7.00;99.90;;;;;;5038649;28;20218;-42
2022/12/26 10:37:46;;;;;;;12.83;1.03;;;6.70;99.90;;;;;;5048043;28;20080;-43
2022/12/26 10:40:26;;;;;;;9.10;0.68;;;7.50;99.90;;;;;;5046503;28;20489;-43
2022/12/26 10:43:09;;;;;;;10.05;0.55;;;6.60;99.90;;;;;;5047983;28;20116;-43
2022/12/26 10:45:59;;;;;;;8.23;0.90;;;7.00;99.90;;;;;;5048172;28;20045;-44
2022/12/26 10:48:27;;;;;;;10.10;1.05;;;6.70;99.90;;;;;;5048260;28;20037;-43
2022/12/26 10:50:53;;;;;;;10.23;0.65;;;6.90;99.90;;;;;;5046465;28;20049;-43
2022/12/26 10:53:19;;;;;;;5.85;0.50;;;6.70;99.90;;;;;;5047091;28;20403;-44
2022/12/26 10:55:45;;;;;;;11.65;1.35;;;7.30;99.90;;;;;;5047140;28;20557;-43
2022/12/26 10:58:16;;;;;;;18.52;3.28;;;6.80;99.90;;;;;;5047059;28;20057;-43
2022/12/26 11:00:42;;;;;;;7.80;0.68;;;6.90;99.90;;;;;;5047177;28;20847;-43
2022/12/26 11:03:14;;;;;;;6.38;0.50;;;6.80;99.90;;;;;;5046755;28;20040;-42
2022/12/26 11:05:47;;;;;;;9.13;0.98;;;6.90;99.90;;;;;;5047717;28;20064;-44
2022/12/26 11:08:20;;;;;;;6.78;0.45;;;7.40;99.90;;;;;;5047281;28;20056;-44
2022/12/26 11:11:10;;;;;;;16.25;0.98;;;7.30;99.90;;;;;;5047573;28;20150;-43
2022/12/26 11:13:40;;;;;;;6.53;0.25;;;6.90;99.90;;;;;;5047348;28;20469;-43
2022/12/26 11:16:08;;;;;;;10.20;0.70;;;6.90;99.90;;;;;;5047037;28;20072;-42
2022/12/26 11:18:38;;;;;;;2.03;0.20;;;7.30;99.90;;;;;;5046925;28;20041;-43
2022/12/26 11:21:25;;;;;;;6.53;0.50;;;7.00;99.90;;;;;;5046863;28;20041;-43
2022/12/26 11:24:09;;;;;;;4.28;0.85;;;6.80;99.90;;;;;;5046620;28;20033;-43
2022/12/26 11:26:37;;;;;;;11.98;0.40;;;6.60;99.90;;;;;;5047037;28;20479;-42
2022/12/26 11:29:17;;;;;;;6.82;0.50;;;6.40;99.90;;;;;;5047380;28;20139;-42
2022/12/26 11:31:52;;;;;;;6.28;0.45;;;6.80;99.90;;;;;;5047227;28;20053;-42
2022/12/26 11:34:28;;;;;;;5.97;0.55;;;6.50;99.90;;;;;;5046302;28;20772;-45
2022/12/26 11:36:54;;;;;;;6.80;1.02;;;6.60;99.90;;;;;;5040717;28;20553;-42
2022/12/26 11:39:33;;;;;;;7.32;1.38;;;6.70;99.90;;;;;;5019554;28;20519;-42
2022/12/26 11:41:59;;;;;;;13.27;0.50;;;6.70;99.90;;;;;;5045739;28;20041;-43
2022/12/26 11:44:35;;;;;;;7.57;0.40;;;6.90;99.90;;;;;;5046866;28;20056;-41
2022/12/26 11:47:08;;;;;;;10.18;0.80;;;7.50;99.90;;;;;;5045789;28;20049;-42
2022/12/26 11:49:38;;;;;;;7.72;0.60;;;7.30;99.90;;;;;;5045799;28;20036;-44
2022/12/26 11:52:41;;;;;;;10.00;2.03;;;7.50;99.90;;;;;;5044911;28;20872;-41
2022/12/26 11:55:25;;;;;;;10.18;0.52;;;6.60;99.90;;;;;;5045809;28;20650;-46
2022/12/26 11:58:08;;;;;;;5.72;0.40;;;7.10;99.90;;;;;;5045853;28;20052;-42
2022/12/26 12:00:35;;;;;;;9.02;0.32;;;6.50;99.90;;;;;;5046313;28;20048;-41
2022/12/26 12:03:09;;;;;;;7.53;0.68;;;6.70;99.90;;;;;;5046329;28;20072;-45
2022/12/26 12:05:46;;;;;;;9.80;0.50;;;6.50;99.90;;;;;;5046608;28;20415;-46
2022/12/26 12:08:23;;;;;;;7.90;0.38;;;6.50;99.90;;;;;;5046324;28;20398;-44
2022/12/26 12:11:10;;;;;;;7.05;0.45;;;6.40;99.90;;;;;;5045895;28;20068;-45
2022/12/26 12:14:00;;;;;;;6.45;0.60;;;6.30;99.90;;;;;;5046483;28;20457;-45
2022/12/26 12:16:32;;;;;;;4.18;0.30;;;6.30;99.90;;;;;;5046106;28;20041;-46
2022/12/26 12:19:25;;;;;;;3.97;0.77;;;7.40;99.90;;;;;;5046511;28;20052;-43
2022/12/26 12:22:26;;;;;;;13.65;0.60;;;6.30;99.90;;;;;;5044434;28;20085;-47
2022/12/26 12:25:12;;;;;;;10.50;0.63;;;6.40;99.90;;;;;;5029154;28;20594;-52
2022/12/26 12:27:53;;;;;;;11.15;0.88;;;6.40;99.90;;;;;;5048224;28;20056;-54
2022/12/26 12:30:23;;;;;;;12.98;1.45;;;6.40;99.90;;;;;;5046472;28;20087;-49
2022/12/26 12:33:17;;;;;;;10.07;1.58;;;6.60;99.90;;;;;;5047700;28;20047;-54
2022/12/26 12:35:51;;;;;;;7.55;0.73;;;6.40;99.90;;;;;;5047372;28;20119;-47
2022/12/26 12:38:19;;;;;;;11.55;1.77;;;6.40;99.90;;;;;;5047099;28;20060;-55
2022/12/26 12:40:50;;;;;;;8.25;1.00;;;6.40;99.90;;;;;;5047349;28;20127;-48
2022/12/26 12:43:28;;;;;;;9.68;0.88;;;6.30;99.90;;;;;;5047300;28;20550;-49
2022/12/26 12:46:26;;;;;;;9.82;0.70;;;6.40;99.90;;;;;;5047506;28;20048;-55
2022/12/26 12:48:55;;;;;;;12.63;1.10;;;6.40;99.90;;;;;;5047539;28;20485;-47
2022/12/26 12:51:39;;;;;;;11.07;1.30;;;6.30;99.90;;;;;;5046699;28;20098;-53
2022/12/26 12:54:11;;;;;;;16.27;1.08;;;6.30;99.90;;;;;;5045862;28;20049;-50
2022/12/26 12:56:46;;;;;;;6.47;1.00;;;6.30;99.90;;;;;;5043966;28;20049;-54
2022/12/26 12:59:26;;;;;;;10.77;1.35;;;6.00;99.90;;;;;;5045851;28;20045;-46
2022/12/26 13:01:57;;;;;;;10.73;0.82;;;6.10;99.90;;;;;;5045865;28;20099;-45
2022/12/26 13:04:36;;;;;;;9.75;2.10;;;5.80;99.90;;;;;;5046490;28;20401;-45
2022/12/26 13:07:17;;;;;;;10.82;1.88;;;6.10;99.90;;;;;;5046801;28;20043;-45
2022/12/26 13:09:59;;;;;;;10.87;0.93;;;5.80;99.90;;;;;;5046443;28;20053;-45
2022/12/26 13:12:29;;;;;;;17.83;1.30;;;5.90;99.90;;;;;;5046471;28;20275;-45
2022/12/26 13:15:05;;;;;;;13.55;1.05;;;5.70;99.90;;;;;;5046623;28;20064;-47
2022/12/26 13:17:37;;;;;;;12.88;2.30;;;6.70;99.90;;;;;;5046581;28;20364;-46
2022/12/26 13:20:22;;;;;;;14.77;1.15;;;5.70;99.90;;;;;;5046719;28;20056;-45
2022/12/26 13:25:52;;;;;;;11.45;1.23;;;5.90;99.90;;;;;;5046744;28;20053;-45
2022/12/26 13:28:23;;;;;;;10.15;1.00;;;5.70;99.90;;;;;;5046723;28;20124;-49
2022/12/26 13:30:54;;;;;;;12.90;1.15;;;5.40;99.90;;;;;;5046856;28;20037;-47
2022/12/26 13:33:20;;;;;;;13.43;1.08;;;5.30;99.90;;;;;;5046392;28;20055;-47
2022/12/26 13:35:57;;;;;;;17.23;1.30;;;5.20;99.90;;;;;;5046149;28;20049;-46
2022/12/26 13:38:44;;;;;;;7.53;0.70;;;5.20;99.90;;;;;;5046181;28;20065;-49
2022/12/26 13:44:24;;;;;;;10.40;0.73;;;5.40;99.90;;;;;;5046532;28;20056;-46
2022/12/26 13:46:49;;;;;;;14.75;1.10;;;5.60;99.90;;;;;;5046600;28;20049;-46
2022/12/26 13:49:27;;;;;;;11.85;0.75;;;5.60;99.90;;;;;;5046385;28;20056;-45
2022/12/26 13:51:59;;;;;;;11.77;1.30;;;5.30;99.90;;;;;;5046283;28;20053;-47
2022/12/26 13:54:26;;;;;;;12.30;1.05;;;5.20;99.90;;;;;;5045895;28;20604;-46
2022/12/26 13:56:57;;;;;;;12.52;1.35;;;5.10;99.90;;;;;;5046191;28;20394;-46
2022/12/26 13:59:34;;;;;;;11.82;0.73;;;5.00;99.90;;;;;;5046069;28;20573;-47
2022/12/26 14:02:41;;;;;;;10.27;1.20;;;6.00;99.90;;;;;;5046531;28;20395;-46
2022/12/26 14:05:31;;;;;;;9.90;1.60;;;4.80;99.90;;;;;;5046169;28;20041;-45
2022/12/26 14:08:06;;;;;;;13.43;1.58;;;4.70;99.90;;;;;;5046720;28;20145;-47
2022/12/26 14:11:02;;;;;;;14.55;0.98;;;4.80;99.90;;;;;;5045925;28;20049;-46
2022/12/26 14:13:50;;;;;;;14.45;1.00;;;4.60;99.90;;;;;;5046450;28;20049;-47
2022/12/26 14:16:40;;;;;;;12.43;0.70;;;4.70;99.90;;;;;;5049817;28;20080;-45
2022/12/26 14:19:33;;;;;;;12.88;1.20;;;4.70;99.90;;;;;;5049680;28;20047;-45
2022/12/26 14:22:10;;;;;;;9.63;0.90;;;4.90;99.90;;;;;;5049664;28;20044;-46
2022/12/26 14:24:53;;;;;;;10.18;0.82;;;5.00;99.90;;;;;;5049156;28;20079;-47
2022/12/26 14:27:31;;;;;;;9.02;0.50;;;5.10;99.90;;;;;;5049648;28;20051;-47
2022/12/26 14:30:11;;;;;;;17.23;0.93;;;5.10;99.90;;;;;;5049589;28;20047;-48
2022/12/26 14:33:12;;;;;;;12.95;1.25;;;5.10;99.90;;;;;;5049249;28;20163;-48
2022/12/26 14:35:47;;;;;;;11.70;0.95;;;5.00;99.90;;;;;;5048669;28;20055;-47
2022/12/26 14:38:34;;;;;;;12.57;1.63;;;4.90;99.90;;;;;;5049138;28;20049;-48
2022/12/26 14:44:21;;;;;;;7.80;1.48;;;4.60;99.90;;;;;;5048943;28;20107;-46
2022/12/26 14:46:50;;;;;;;11.13;1.23;;;4.30;99.90;;;;;;5049061;28;20041;-46
2022/12/26 14:49:29;;;;;;;15.02;2.05;;;4.30;99.90;;;;;;5049364;28;20045;-45
2022/12/26 14:52:24;;;;;;;8.60;1.42;;;4.00;99.90;;;;;;5048911;28;20047;-46
2022/12/26 14:54:51;;;;;;;11.57;1.00;;;3.90;99.90;;;;;;5048474;28;20060;-46
2022/12/26 14:57:44;;;;;;;16.85;1.38;;;2.10;99.90;;;;;;5048802;28;20045;-45
2022/12/26 15:00:22;;;;;;;14.82;2.63;;;3.80;99.90;;;;;;5048740;28;20048;-46
2022/12/26 15:03:26;;;;;;;12.20;1.05;;;4.00;99.90;;;;;;5048966;28;20045;-45
2022/12/26 15:05:58;;;;;;;16.05;1.45;;;3.80;99.90;;;;;;5047525;28;20457;-45
2022/12/26 15:08:26;;;;;;;11.80;0.98;;;3.90;99.90;;;;;;5048791;28;20045;-46
2022/12/26 15:11:14;;;;;;;11.13;1.40;;;3.60;99.90;;;;;;5047995;28;20578;-47
2022/12/26 15:14:07;;;;;;;14.00;1.70;;;3.70;99.90;;;;;;5048299;28;20516;-46
2022/12/26 15:16:36;;;;;;;8.23;2.08;;;3.70;99.90;;;;;;5048129;28;20118;-45
2022/12/26 15:19:28;;;;;;;12.63;2.08;;;3.60;99.90;;;;;;5048586;28;20458;-47
2022/12/26 15:21:57;;;;;;;;;;;3.90;99.90;;;;;;5048829;28;20118;-45
2022/12/26 15:24:44;;;;;;;9.82;0.90;;;3.70;99.90;;;;;;5048442;28;20006;-46